createdAt,value
2018-06-05T00:00:30.274Z,32.40
2018-06-05T00:01:30.273Z,35.20
2018-06-05T00:02:30.268Z,34.90
2018-06-05T00:03:30.267Z,33.00
2018-06-05T00:04:30.270Z,35.40
2018-06-05T00:05:30.271Z,34.10
2018-06-05T00:06:30.269Z,36.60
2018-06-05T00:07:30.267Z,37.10
2018-06-05T00:08:30.260Z,37.40
2018-06-05T00:09:30.260Z,33.50
2018-06-05T00:10:30.259Z,35.60
2018-06-05T00:11:30.257Z,35.30
2018-06-05T00:12:30.261Z,35.70
2018-06-05T00:13:30.259Z,33.80
2018-06-05T00:14:30.258Z,36.70
2018-06-05T00:15:30.257Z,34.50
2018-06-05T00:16:30.250Z,35.80
2018-06-05T00:17:30.249Z,31.80
2018-06-05T00:18:30.253Z,37.20
2018-06-05T00:19:30.252Z,37.00
2018-06-05T00:20:30.246Z,33.90
2018-06-05T00:21:30.244Z,32.60
2018-06-05T00:22:30.244Z,31.90
2018-06-05T00:23:30.248Z,35.10
2018-06-05T00:24:30.245Z,33.40
2018-06-05T00:25:30.246Z,34.90
2018-06-05T00:26:30.247Z,39.70
2018-06-05T00:27:30.246Z,36.10
2018-06-05T00:28:30.236Z,34.10
2018-06-05T00:29:30.235Z,34.00
2018-06-05T00:30:30.234Z,33.30
2018-06-05T00:31:30.233Z,33.60
2018-06-05T00:32:30.237Z,33.70
2018-06-05T00:33:30.235Z,36.20
2018-06-05T00:34:30.229Z,33.50
2018-06-05T00:35:30.228Z,32.60
2018-06-05T00:36:30.232Z,32.40
2018-06-05T00:37:30.233Z,35.30
2018-06-05T00:38:30.229Z,36.20
2018-06-05T00:39:30.228Z,34.20
2018-06-05T00:40:30.222Z,31.90
2018-06-05T00:41:30.221Z,35.10
2018-06-05T00:42:30.220Z,34.50
2018-06-05T00:43:30.219Z,35.00
2018-06-05T00:44:30.221Z,36.50
2018-06-05T00:45:30.220Z,31.80
2018-06-05T00:46:30.221Z,35.90
2018-06-05T00:47:30.219Z,33.90
2018-06-05T00:48:30.213Z,34.20
2018-06-05T00:49:30.212Z,35.10
2018-06-05T00:50:30.216Z,34.00
2018-06-05T00:51:30.216Z,33.90
2018-06-05T00:52:30.210Z,34.50
2018-06-05T00:53:30.207Z,35.30
2018-06-05T00:54:30.206Z,36.90
2018-06-05T00:55:30.205Z,37.40
2018-06-05T00:56:30.207Z,38.70
2018-06-05T00:57:30.213Z,36.40
2018-06-05T00:58:30.209Z,41.70
2018-06-05T00:59:30.205Z,36.10
2018-06-05T01:00:30.201Z,40.50
2018-06-05T01:01:30.198Z,35.40
2018-06-05T01:02:30.200Z,36.10
2018-06-05T01:03:30.196Z,39.90
2018-06-05T01:04:30.199Z,38.90
2018-06-05T01:05:30.198Z,40.80
2018-06-05T01:06:30.192Z,39.60
2018-06-05T01:07:30.192Z,40.60
2018-06-05T01:08:30.195Z,40.40
2018-06-05T01:09:30.193Z,36.50
2018-06-05T01:10:30.192Z,42.20
2018-06-05T01:11:30.192Z,42.60
2018-06-05T01:12:30.185Z,43.00
2018-06-05T01:13:30.184Z,37.40
2018-06-05T01:14:30.184Z,43.50
2018-06-05T01:15:30.183Z,44.20
2018-06-05T01:16:30.186Z,43.10
2018-06-05T01:17:30.185Z,46.60
2018-06-05T01:18:30.185Z,45.60
2018-06-05T01:19:30.185Z,42.80
2018-06-05T01:20:30.177Z,43.80
2018-06-05T01:21:30.176Z,48.40
2018-06-05T01:22:30.180Z,43.50
2018-06-05T01:23:30.182Z,48.20
2018-06-05T01:24:30.172Z,43.10
2018-06-05T01:25:30.173Z,49.20
2018-06-05T01:26:30.172Z,47.60
2018-06-05T01:27:30.170Z,46.00
2018-06-05T01:28:30.172Z,52.70
2018-06-05T01:29:30.172Z,46.00
2018-06-05T01:30:30.172Z,52.00
2018-06-05T01:31:30.170Z,53.80
2018-06-05T01:32:30.165Z,50.20
2018-06-05T01:33:30.168Z,54.20
2018-06-05T01:34:30.163Z,47.80
2018-06-05T01:35:30.162Z,53.00
2018-06-05T01:36:30.165Z,55.00
2018-06-05T01:37:30.164Z,53.40
2018-06-05T01:38:30.212Z,56.60
2018-06-05T01:39:30.159Z,59.50
2018-06-05T01:40:30.165Z,59.40
2018-06-05T01:41:30.160Z,55.90
2018-06-05T01:42:30.159Z,58.00
2018-06-05T01:43:30.158Z,56.10
2018-06-05T01:44:30.153Z,55.10
2018-06-05T01:45:30.151Z,57.00
2018-06-05T01:46:30.150Z,52.70
2018-06-05T01:47:30.149Z,54.20
2018-06-05T01:48:30.152Z,62.00
2018-06-05T01:49:30.151Z,55.50
2018-06-05T01:50:30.155Z,60.30
2018-06-05T01:51:30.151Z,58.50
2018-06-05T01:52:30.145Z,58.20
2018-06-05T01:53:30.143Z,62.50
2018-06-05T01:54:30.148Z,58.10
2018-06-05T01:55:30.155Z,57.70
2018-06-05T01:56:30.140Z,54.20
2018-06-05T01:57:30.145Z,54.20
2018-06-05T01:58:30.138Z,55.10
2018-06-05T01:59:30.137Z,51.60
2018-06-05T02:00:30.139Z,54.00
2018-06-05T02:01:30.139Z,56.50
2018-06-05T02:02:30.141Z,52.00
2018-06-05T02:03:30.137Z,57.40
2018-06-05T02:04:30.131Z,56.30
2018-06-05T02:05:30.130Z,56.30
2018-06-05T02:06:30.129Z,56.10
2018-06-05T02:07:30.130Z,55.00
2018-06-05T02:08:30.133Z,56.40
2018-06-05T02:09:30.132Z,56.20
2018-06-05T02:10:30.125Z,52.10
2018-06-05T02:11:30.125Z,46.80
2018-06-05T02:12:30.129Z,51.00
2018-06-05T02:13:30.129Z,48.00
2018-06-05T02:14:30.126Z,49.40
2018-06-05T02:15:30.125Z,46.90
2018-06-05T02:16:30.118Z,52.20
2018-06-05T02:17:30.120Z,48.50
2018-06-05T02:18:30.118Z,47.90
2018-06-05T02:19:30.117Z,48.70
2018-06-05T02:20:30.121Z,43.30
2018-06-05T02:21:30.119Z,48.40
2018-06-05T02:22:30.118Z,48.20
2018-06-05T02:23:30.117Z,48.40
2018-06-05T02:24:30.115Z,48.50
2018-06-05T02:25:30.110Z,44.30
2018-06-05T02:26:30.115Z,51.40
2018-06-05T02:27:30.115Z,45.50
2018-06-05T02:28:30.111Z,46.30
2018-06-05T02:29:30.106Z,47.00
2018-06-05T02:30:30.104Z,44.90
2018-06-05T02:31:30.103Z,48.00
2018-06-05T02:32:30.108Z,47.00
2018-06-05T02:33:30.105Z,50.70
2018-06-05T02:34:30.108Z,48.60
2018-06-05T02:35:30.112Z,50.50
2018-06-05T02:36:30.098Z,46.50
2018-06-05T02:37:30.097Z,44.60
2018-06-05T02:38:30.097Z,52.30
2018-06-05T02:39:30.096Z,49.80
2018-06-05T02:40:30.103Z,60.90
2018-06-05T02:41:30.097Z,64.40
2018-06-05T02:42:30.093Z,62.20
2018-06-05T02:43:30.094Z,68.70
2018-06-05T02:44:30.094Z,65.10
2018-06-05T02:45:30.093Z,67.70
2018-06-05T02:46:30.094Z,63.40
2018-06-05T02:47:30.095Z,70.60
2018-06-05T02:48:30.085Z,67.00
2018-06-05T02:49:30.085Z,61.80
2018-06-05T02:50:30.085Z,62.00
2018-06-05T02:51:30.084Z,59.90
2018-06-05T02:52:30.087Z,59.30
2018-06-05T02:53:30.086Z,71.60
2018-06-05T02:54:30.084Z,60.70
2018-06-05T02:55:30.082Z,59.10
2018-06-05T02:56:30.077Z,61.50
2018-06-05T02:57:30.076Z,59.90
2018-06-05T02:58:30.081Z,54.40
2018-06-05T02:59:30.079Z,53.50
2018-06-05T03:00:30.073Z,54.70
2018-06-05T03:01:30.072Z,55.30
2018-06-05T03:02:30.072Z,54.00
2018-06-05T03:03:30.070Z,50.30
2018-06-05T03:04:30.074Z,51.70
2018-06-05T03:05:30.076Z,52.30
2018-06-05T03:06:30.073Z,57.00
2018-06-05T03:07:30.070Z,56.70
2018-06-05T03:08:30.064Z,52.80
2018-06-05T03:09:30.064Z,56.20
2018-06-05T03:10:30.062Z,54.50
2018-06-05T03:11:30.061Z,55.30
2018-06-05T03:12:30.064Z,59.50
2018-06-05T03:13:30.063Z,58.50
2018-06-05T03:14:30.058Z,52.40
2018-06-05T03:15:30.057Z,64.80
2018-06-05T03:16:30.061Z,61.40
2018-06-05T03:17:30.062Z,58.30
2018-06-05T03:18:30.059Z,63.50
2018-06-05T03:19:30.059Z,63.90
2018-06-05T03:20:30.051Z,70.60
2018-06-05T03:21:30.053Z,59.60
2018-06-05T03:22:30.050Z,63.30
2018-06-05T03:23:30.049Z,63.20
2018-06-05T03:24:30.051Z,60.30
2018-06-05T03:25:30.051Z,65.40
2018-06-05T03:26:30.053Z,58.20
2018-06-05T03:27:30.048Z,63.40
2018-06-05T03:28:30.043Z,59.50
2018-06-05T03:29:30.042Z,60.20
2018-06-05T03:30:30.046Z,61.40
2018-06-05T03:31:30.045Z,65.00
2018-06-05T03:32:30.038Z,59.70
2018-06-05T03:33:30.037Z,60.20
2018-06-05T03:34:30.037Z,60.60
2018-06-05T03:35:30.036Z,67.50
2018-06-05T03:36:30.040Z,61.50
2018-06-05T03:37:30.039Z,60.50
2018-06-05T03:38:30.036Z,57.10
2018-06-05T03:39:30.036Z,56.40
2018-06-05T03:40:30.030Z,65.60
2018-06-05T03:41:30.028Z,65.10
2018-06-05T03:42:30.029Z,65.10
2018-06-05T03:43:30.027Z,60.70
2018-06-05T03:44:30.030Z,64.40
2018-06-05T03:45:30.030Z,62.50
2018-06-05T03:46:30.026Z,65.70
2018-06-05T03:47:30.024Z,64.50
2018-06-05T03:48:30.027Z,62.70
2018-06-05T03:49:30.026Z,68.90
2018-06-05T03:50:30.024Z,69.30
2018-06-05T03:51:30.023Z,58.30
2018-06-05T03:52:30.017Z,59.80
2018-06-05T03:53:30.016Z,55.00
2018-06-05T03:54:30.015Z,61.80
2018-06-05T03:55:30.017Z,65.70
2018-06-05T03:56:30.033Z,65.90
2018-06-05T03:57:30.017Z,61.00
2018-06-05T03:58:30.016Z,62.50
2018-06-05T03:59:30.015Z,65.40
2018-06-05T04:00:30.008Z,55.90
2018-06-05T04:01:30.007Z,55.30
2018-06-05T04:02:30.012Z,63.00
2018-06-05T04:03:30.012Z,60.00
2018-06-05T04:04:30.005Z,59.70
2018-06-05T04:05:30.003Z,64.50
2018-06-05T04:06:30.002Z,62.40
2018-06-05T04:07:30.001Z,64.50
2018-06-05T04:08:30.003Z,61.40
2018-06-05T04:09:30.003Z,64.90
2018-06-05T04:10:30.002Z,60.70
2018-06-05T04:11:30.002Z,60.80
2018-06-05T04:12:29.996Z,60.40
2018-06-05T04:13:29.994Z,58.30
2018-06-05T04:14:29.995Z,57.70
2018-06-05T04:15:29.995Z,60.70
2018-06-05T04:16:30.000Z,59.30
2018-06-05T04:17:29.995Z,54.50
2018-06-05T04:18:29.990Z,61.90
2018-06-05T04:19:29.989Z,58.60
2018-06-05T04:20:29.993Z,53.40
2018-06-05T04:21:29.992Z,55.60
2018-06-05T04:22:29.990Z,59.40
2018-06-05T04:23:29.989Z,56.80
2018-06-05T04:24:29.983Z,53.90
2018-06-05T04:25:29.982Z,58.20
2018-06-05T04:26:29.982Z,58.90
2018-06-05T04:27:30.010Z,60.60
2018-06-05T04:28:29.990Z,53.90
2018-06-05T04:29:29.982Z,55.20
2018-06-05T04:30:29.983Z,57.40
2018-06-05T04:31:29.982Z,53.60
2018-06-05T04:32:29.977Z,56.00
2018-06-05T04:33:29.977Z,52.80
2018-06-05T04:34:29.980Z,57.10
2018-06-05T04:35:29.979Z,57.50
2018-06-05T04:36:29.972Z,59.60
2018-06-05T04:37:29.975Z,52.90
2018-06-05T04:38:29.971Z,55.90
2018-06-05T04:39:29.973Z,52.50
2018-06-05T04:40:29.973Z,54.90
2018-06-05T04:41:29.972Z,52.50
2018-06-05T04:42:29.973Z,56.30
2018-06-05T04:43:29.972Z,57.50
2018-06-05T04:44:29.965Z,57.00
2018-06-05T04:45:29.965Z,49.70
2018-06-05T04:46:29.964Z,53.40
2018-06-05T04:47:29.964Z,53.20
2018-06-05T04:48:29.966Z,53.60
2018-06-05T04:49:29.966Z,53.70
2018-06-05T04:50:29.961Z,56.30
2018-06-05T04:51:29.960Z,54.70
2018-06-05T04:52:29.965Z,52.90
2018-06-05T04:53:29.967Z,54.60
2018-06-05T04:54:29.963Z,57.40
2018-06-05T04:55:29.963Z,53.20
2018-06-05T04:56:29.957Z,53.70
2018-06-05T04:57:29.957Z,54.40
2018-06-05T04:58:29.958Z,56.70
2018-06-05T04:59:29.955Z,53.20
2018-06-05T05:00:29.959Z,60.00
2018-06-05T05:01:29.959Z,59.40
2018-06-05T05:02:29.957Z,59.70
2018-06-05T05:03:29.957Z,58.90
2018-06-05T05:04:29.950Z,59.00
2018-06-05T05:05:29.950Z,57.00
2018-06-05T05:06:29.954Z,54.70
2018-06-05T05:07:29.953Z,61.30
2018-06-05T05:08:29.948Z,58.00
2018-06-05T05:09:29.948Z,56.30
2018-06-05T05:10:29.948Z,60.30
2018-06-05T05:11:29.949Z,53.80
2018-06-05T05:12:29.952Z,55.00
2018-06-05T05:13:29.950Z,57.60
2018-06-05T05:14:29.960Z,57.70
2018-06-05T05:15:29.951Z,57.30
2018-06-05T05:16:29.946Z,55.10
2018-06-05T05:17:29.944Z,55.90
2018-06-05T05:18:29.943Z,56.30
2018-06-05T05:19:29.942Z,60.70
2018-06-05T05:20:29.946Z,61.20
2018-06-05T05:21:29.945Z,60.40
2018-06-05T05:22:29.941Z,57.80
2018-06-05T05:23:29.940Z,63.80
2018-06-05T05:24:29.945Z,64.30
2018-06-05T05:25:29.944Z,59.20
2018-06-05T05:26:29.945Z,61.70
2018-06-05T05:27:29.944Z,58.30
2018-06-05T05:28:29.938Z,60.70
2018-06-05T05:29:29.937Z,57.80
2018-06-05T05:30:29.937Z,58.90
2018-06-05T05:31:29.938Z,61.10
2018-06-05T05:32:29.941Z,62.70
2018-06-05T05:33:29.940Z,63.60
2018-06-05T05:34:29.939Z,58.60
2018-06-05T05:35:29.939Z,61.70
2018-06-05T05:36:29.934Z,59.90
2018-06-05T05:37:29.933Z,59.50
2018-06-05T05:38:29.939Z,62.80
2018-06-05T05:39:29.937Z,67.60
2018-06-05T05:40:29.933Z,56.50
2018-06-05T05:41:29.933Z,61.70
2018-06-05T05:42:29.932Z,61.40
2018-06-05T05:43:29.932Z,67.10
2018-06-05T05:44:29.939Z,62.40
2018-06-05T05:45:29.937Z,61.60
2018-06-05T05:46:29.931Z,61.60
2018-06-05T05:47:29.931Z,68.90
2018-06-05T05:48:29.934Z,64.00
2018-06-05T05:49:29.934Z,65.80
2018-06-05T05:50:29.935Z,60.90
2018-06-05T05:51:29.935Z,66.30
2018-06-05T05:52:29.933Z,65.10
2018-06-05T05:53:29.931Z,63.30
2018-06-05T05:54:29.934Z,69.20
2018-06-05T05:55:29.936Z,63.70
2018-06-05T05:56:29.929Z,61.10
2018-06-05T05:57:29.930Z,63.90
2018-06-05T05:58:29.929Z,59.80
2018-06-05T05:59:29.929Z,58.70
2018-06-05T06:00:29.932Z,65.30
2018-06-05T06:01:29.933Z,62.70
2018-06-05T06:02:29.934Z,60.70
2018-06-05T06:03:29.934Z,63.80
2018-06-05T06:04:29.928Z,61.20
2018-06-05T06:05:29.928Z,60.50
2018-06-05T06:06:29.929Z,61.00
2018-06-05T06:07:29.929Z,63.20
2018-06-05T06:08:29.934Z,60.40
2018-06-05T06:09:29.934Z,61.10
2018-06-05T06:10:29.929Z,63.90
2018-06-05T06:11:29.929Z,69.10
2018-06-05T06:12:29.934Z,61.60
2018-06-05T06:13:29.934Z,57.70
2018-06-05T06:14:29.933Z,60.90
2018-06-05T06:15:29.933Z,58.10
2018-06-05T06:16:29.928Z,59.20
2018-06-05T06:17:29.929Z,56.40
2018-06-05T06:18:29.930Z,55.80
2018-06-05T06:19:29.929Z,50.90
2018-06-05T06:20:29.933Z,52.50
2018-06-05T06:21:29.933Z,50.70
2018-06-05T06:22:29.936Z,50.20
2018-06-05T06:23:29.934Z,54.90
2018-06-05T06:24:29.928Z,53.60
2018-06-05T06:25:29.929Z,50.40
2018-06-05T06:26:29.936Z,54.70
2018-06-05T06:27:29.936Z,51.70
2018-06-05T06:28:29.929Z,52.90
2018-06-05T06:29:29.930Z,51.20
2018-06-05T06:30:29.930Z,50.90
2018-06-05T06:31:29.930Z,51.50
2018-06-05T06:32:29.934Z,52.50
2018-06-05T06:33:29.934Z,55.40
2018-06-05T06:34:29.936Z,55.40
2018-06-05T06:35:29.935Z,49.20
2018-06-05T06:36:29.930Z,55.60
2018-06-05T06:37:29.931Z,54.50
2018-06-05T06:38:29.935Z,53.60
2018-06-05T06:39:29.932Z,51.50
2018-06-05T06:40:29.938Z,58.20
2018-06-05T06:41:29.937Z,53.80
2018-06-05T06:42:29.932Z,56.00
2018-06-05T06:43:29.932Z,52.00
2018-06-05T06:44:29.937Z,53.70
2018-06-05T06:45:29.937Z,59.50
2018-06-05T06:46:29.936Z,55.80
2018-06-05T06:47:29.937Z,53.50
2018-06-05T06:48:29.938Z,56.80
2018-06-05T06:49:29.934Z,54.10
2018-06-05T06:50:29.932Z,52.00
2018-06-05T06:51:29.935Z,54.30
2018-06-05T06:52:29.938Z,56.80
2018-06-05T06:53:29.938Z,58.40
2018-06-05T06:54:29.975Z,59.10
2018-06-05T06:55:29.938Z,62.70
2018-06-05T06:56:29.933Z,59.00
2018-06-05T06:57:29.933Z,61.60
2018-06-05T06:58:29.938Z,62.60
2018-06-05T06:59:29.938Z,57.90
2018-06-05T07:00:29.933Z,58.00
2018-06-05T07:01:29.933Z,56.70
2018-06-05T07:02:29.933Z,62.00
2018-06-05T07:03:29.981Z,56.30
2018-06-05T07:04:29.940Z,59.90
2018-06-05T07:05:29.938Z,61.30
2018-06-05T07:06:29.939Z,54.60
2018-06-05T07:07:29.943Z,65.60
2018-06-05T07:08:29.934Z,60.40
2018-06-05T07:09:29.935Z,66.50
2018-06-05T07:10:29.934Z,58.90
2018-06-05T07:11:29.934Z,60.20
2018-06-05T07:12:29.939Z,64.10
2018-06-05T07:13:29.938Z,66.90
2018-06-05T07:14:29.934Z,70.90
2018-06-05T07:15:29.935Z,64.80
2018-06-05T07:16:29.937Z,66.50
2018-06-05T07:17:29.937Z,66.10
2018-06-05T07:18:29.940Z,62.80
2018-06-05T07:19:29.940Z,68.20
2018-06-05T07:20:29.933Z,68.40
2018-06-05T07:21:29.933Z,73.40
2018-06-05T07:22:29.934Z,70.00
2018-06-05T07:23:29.934Z,70.60
2018-06-05T07:24:29.939Z,67.90
2018-06-05T07:25:29.938Z,74.10
2018-06-05T07:26:29.941Z,71.90
2018-06-05T07:27:29.938Z,70.00
2018-06-05T07:28:29.933Z,75.80
2018-06-05T07:29:29.933Z,72.70
2018-06-05T07:30:30.015Z,68.10
2018-06-05T07:31:29.938Z,69.60
2018-06-05T07:32:29.937Z,66.30
2018-06-05T07:33:29.933Z,68.50
2018-06-05T07:34:29.936Z,68.20
2018-06-05T07:35:29.934Z,68.80
2018-06-05T07:36:29.939Z,66.20
2018-06-05T07:37:29.939Z,61.00
2018-06-05T07:38:29.938Z,65.10
2018-06-05T07:39:29.938Z,69.40
2018-06-05T07:40:29.932Z,64.20
2018-06-05T07:41:29.933Z,60.50
2018-06-05T07:42:29.933Z,65.90
2018-06-05T07:43:29.934Z,63.70
2018-06-05T07:44:29.948Z,68.30
2018-06-05T07:45:29.937Z,66.00
2018-06-05T07:46:29.933Z,64.70
2018-06-05T07:47:29.933Z,60.20
2018-06-05T07:48:29.938Z,63.00
2018-06-05T07:49:29.939Z,53.30
2018-06-05T07:50:29.938Z,60.30
2018-06-05T07:51:29.939Z,59.00
2018-06-05T07:52:29.933Z,61.40
2018-06-05T07:53:29.933Z,59.70
2018-06-05T07:54:29.933Z,59.30
2018-06-05T07:55:29.934Z,62.70
2018-06-05T07:56:29.938Z,55.70
2018-06-05T07:57:29.943Z,64.30
2018-06-05T07:58:29.940Z,58.50
2018-06-05T07:59:29.939Z,58.50
2018-06-05T08:00:29.935Z,61.10
2018-06-05T08:01:29.934Z,64.20
2018-06-05T08:02:29.940Z,58.40
2018-06-05T08:03:29.942Z,56.60
2018-06-05T08:04:29.934Z,55.90
2018-06-05T08:05:29.935Z,57.50
2018-06-05T08:06:29.935Z,59.00
2018-06-05T08:07:29.936Z,60.50
2018-06-05T08:08:29.940Z,54.60
2018-06-05T08:09:29.940Z,55.00
2018-06-05T08:10:29.940Z,59.60
2018-06-05T08:11:29.942Z,52.10
2018-06-05T08:12:29.937Z,53.60
2018-06-05T08:13:29.936Z,58.90
2018-06-05T08:14:29.937Z,54.00
2018-06-05T08:15:29.941Z,53.10
2018-06-05T08:16:29.945Z,55.60
2018-06-05T08:17:29.943Z,55.60
2018-06-05T08:18:30.003Z,54.60
2018-06-05T08:19:29.942Z,58.00
2018-06-05T08:20:29.945Z,52.20
2018-06-05T08:21:29.944Z,53.90
2018-06-05T08:22:29.945Z,57.00
2018-06-05T08:23:29.945Z,53.40
2018-06-05T08:24:29.948Z,57.00
2018-06-05T08:25:29.941Z,54.30
2018-06-05T08:26:29.943Z,54.90
2018-06-05T08:27:29.944Z,53.40
2018-06-05T08:28:29.947Z,57.90
2018-06-05T08:29:29.948Z,55.80
2018-06-05T08:30:29.950Z,59.20
2018-06-05T08:31:29.951Z,57.70
2018-06-05T08:32:29.946Z,60.40
2018-06-05T08:33:29.947Z,58.00
2018-06-05T08:34:29.952Z,55.40
2018-06-05T08:35:29.954Z,56.50
2018-06-05T08:36:29.947Z,55.70
2018-06-05T08:37:29.948Z,57.50
2018-06-05T08:38:29.949Z,57.50
2018-06-05T08:39:29.949Z,64.70
2018-06-05T08:40:29.953Z,57.80
2018-06-05T08:41:29.954Z,57.20
2018-06-05T08:42:29.955Z,58.20
2018-06-05T08:43:29.955Z,58.10
2018-06-05T08:44:29.951Z,56.50
2018-06-05T08:45:29.954Z,59.30
2018-06-05T08:46:29.952Z,61.10
2018-06-05T08:47:29.954Z,58.20
2018-06-05T08:48:29.958Z,62.30
2018-06-05T08:49:29.959Z,61.20
2018-06-05T08:50:29.957Z,63.20
2018-06-05T08:51:29.956Z,63.60
2018-06-05T08:52:29.961Z,64.70
2018-06-05T08:53:29.961Z,66.80
2018-06-05T08:54:29.963Z,64.40
2018-06-05T08:55:29.962Z,62.20
2018-06-05T08:56:29.959Z,65.90
2018-06-05T08:57:29.959Z,64.50
2018-06-05T08:58:29.960Z,65.10
2018-06-05T08:59:29.961Z,67.90
2018-06-05T09:00:29.967Z,62.80
2018-06-05T09:01:29.967Z,63.50
2018-06-05T09:02:29.968Z,63.90
2018-06-05T09:03:29.970Z,66.50
2018-06-05T09:04:29.965Z,68.80
2018-06-05T09:05:29.975Z,69.00
2018-06-05T09:06:29.972Z,66.70
2018-06-05T09:07:29.973Z,64.40
2018-06-05T09:08:29.969Z,65.90
2018-06-05T09:09:29.971Z,65.80
2018-06-05T09:10:29.975Z,67.80
2018-06-05T09:11:29.981Z,69.30
2018-06-05T09:12:29.981Z,68.00
2018-06-05T09:13:29.981Z,65.70
2018-06-05T09:14:29.982Z,70.20
2018-06-05T09:15:29.984Z,65.30
2018-06-05T09:16:29.981Z,67.90
2018-06-05T09:17:29.980Z,64.10
2018-06-05T09:18:29.981Z,63.40
2018-06-05T09:19:29.982Z,66.40
2018-06-05T09:20:30.014Z,65.50
2018-06-05T09:21:29.988Z,66.90
2018-06-05T09:22:29.986Z,67.50
2018-06-05T09:23:29.987Z,69.20
2018-06-05T09:24:29.993Z,68.60
2018-06-05T09:25:29.996Z,67.90
2018-06-05T09:26:29.998Z,66.30
2018-06-05T09:27:29.997Z,72.70
2018-06-05T09:28:29.993Z,71.60
2018-06-05T09:29:29.993Z,67.30
2018-06-05T09:30:29.996Z,73.80
2018-06-05T09:31:29.997Z,72.00
2018-06-05T09:32:30.001Z,68.80
2018-06-05T09:33:30.004Z,71.30
2018-06-05T09:34:30.053Z,74.30
2018-06-05T09:35:30.007Z,70.40
2018-06-05T09:36:30.001Z,69.80
2018-06-05T09:37:30.006Z,67.50
2018-06-05T09:38:30.008Z,64.50
2018-06-05T09:39:30.081Z,67.10
2018-06-05T09:40:30.006Z,64.40
2018-06-05T09:41:30.007Z,67.60
2018-06-05T09:42:30.008Z,66.60
2018-06-05T09:43:30.009Z,67.70
2018-06-05T09:44:30.015Z,69.10
2018-06-05T09:45:30.017Z,67.30
2018-06-05T09:46:30.018Z,68.50
2018-06-05T09:47:30.019Z,68.50
2018-06-05T09:48:30.019Z,68.30
2018-06-05T09:49:30.020Z,70.30
2018-06-05T09:50:30.017Z,62.90
2018-06-05T09:51:30.018Z,63.20
2018-06-05T09:52:30.074Z,69.50
2018-06-05T09:53:30.024Z,68.30
2018-06-05T09:54:30.020Z,70.60
2018-06-05T09:55:30.022Z,70.60
2018-06-05T09:56:30.027Z,68.90
2018-06-05T09:57:30.028Z,66.00
2018-06-05T09:58:30.207Z,68.80
2018-06-05T09:59:30.031Z,73.10
2018-06-05T10:00:30.026Z,64.10
2018-06-05T10:01:30.027Z,68.50
2018-06-05T10:02:30.029Z,70.80
2018-06-05T10:03:30.030Z,70.10
2018-06-05T10:04:30.036Z,67.70
2018-06-05T10:05:30.037Z,71.20
2018-06-05T10:06:30.037Z,70.60
2018-06-05T10:07:30.038Z,72.30
2018-06-05T10:08:30.036Z,64.90
2018-06-05T10:09:30.035Z,63.40
2018-06-05T10:10:30.041Z,68.00
2018-06-05T10:11:30.043Z,68.90
2018-06-05T10:12:30.060Z,72.70
2018-06-05T10:13:30.040Z,72.30
2018-06-05T10:14:30.041Z,64.70
2018-06-05T10:15:30.043Z,64.70
2018-06-05T10:16:30.048Z,66.90
2018-06-05T10:17:30.050Z,67.80
2018-06-05T10:18:30.053Z,68.30
2018-06-05T10:19:30.053Z,64.10
2018-06-05T10:20:30.048Z,62.50
2018-06-05T10:21:30.050Z,59.00
2018-06-05T10:22:30.050Z,67.90
2018-06-05T10:23:30.053Z,59.50
2018-06-05T10:24:30.057Z,59.90
2018-06-05T10:25:30.058Z,62.20
2018-06-05T10:26:30.057Z,59.00
2018-06-05T10:27:30.057Z,64.00
2018-06-05T10:28:30.062Z,71.60
2018-06-05T10:29:30.063Z,64.40
2018-06-05T10:30:30.112Z,67.40
2018-06-05T10:31:30.066Z,62.50
2018-06-05T10:32:30.063Z,60.60
2018-06-05T10:33:30.065Z,63.60
2018-06-05T10:34:30.066Z,66.00
2018-06-05T10:35:30.068Z,61.90
2018-06-05T10:36:30.073Z,65.40
2018-06-05T10:37:30.076Z,65.70
2018-06-05T10:38:30.077Z,65.80
2018-06-05T10:39:30.079Z,64.90
2018-06-05T10:40:30.074Z,65.00
2018-06-05T10:41:30.076Z,65.70
2018-06-05T10:42:30.087Z,64.10
2018-06-05T10:43:30.088Z,65.70
2018-06-05T10:44:30.080Z,62.20
2018-06-05T10:45:30.081Z,66.30
2018-06-05T10:46:30.088Z,65.30
2018-06-05T10:47:30.087Z,65.40
2018-06-05T10:48:30.092Z,61.30
2018-06-05T10:49:30.094Z,59.20
2018-06-05T10:50:30.095Z,61.60
2018-06-05T10:51:30.097Z,61.00
2018-06-05T10:52:30.100Z,58.60
2018-06-05T10:53:30.096Z,62.50
2018-06-05T10:54:30.098Z,59.60
2018-06-05T10:55:30.101Z,58.90
2018-06-05T10:56:30.105Z,60.80
2018-06-05T10:57:30.108Z,62.20
2018-06-05T10:58:30.106Z,61.60
2018-06-05T10:59:30.108Z,62.60
2018-06-05T11:00:30.181Z,57.70
2018-06-05T11:01:30.141Z,60.10
2018-06-05T11:02:30.121Z,57.90
2018-06-05T11:03:30.123Z,64.80
2018-06-05T11:04:30.119Z,58.10
2018-06-05T11:05:30.122Z,64.20
2018-06-05T11:06:30.127Z,58.10
2018-06-05T11:07:30.126Z,59.40
2018-06-05T11:08:30.133Z,60.20
2018-06-05T11:09:30.134Z,62.90
2018-06-05T11:10:30.138Z,56.20
2018-06-05T11:11:30.141Z,59.10
2018-06-05T11:12:30.137Z,60.70
2018-06-05T11:13:30.140Z,66.00
2018-06-05T11:14:30.147Z,59.60
2018-06-05T11:15:30.149Z,58.70
2018-06-05T11:16:30.147Z,58.10
2018-06-05T11:17:30.149Z,60.50
2018-06-05T11:18:30.152Z,60.80
2018-06-05T11:19:30.155Z,60.30
2018-06-05T11:20:30.160Z,57.00
2018-06-05T11:21:30.162Z,62.10
2018-06-05T11:22:30.166Z,55.10
2018-06-05T11:23:30.171Z,55.50
2018-06-05T11:24:30.167Z,56.20
2018-06-05T11:25:30.169Z,51.20
2018-06-05T11:26:30.174Z,49.70
2018-06-05T11:27:30.181Z,55.20
2018-06-05T11:28:30.182Z,53.50
2018-06-05T11:29:30.184Z,53.10
2018-06-05T11:30:30.186Z,59.40
2018-06-05T11:31:30.186Z,49.40
2018-06-05T11:32:30.192Z,51.70
2018-06-05T11:33:30.195Z,50.90
2018-06-05T11:34:30.197Z,52.50
2018-06-05T11:35:30.201Z,51.30
2018-06-05T11:36:30.200Z,50.00
2018-06-05T11:37:30.201Z,52.30
2018-06-05T11:38:30.204Z,55.30
2018-06-05T11:39:30.207Z,50.70
2018-06-05T11:40:30.215Z,51.60
2018-06-05T11:41:30.222Z,49.10
2018-06-05T11:42:30.221Z,47.40
2018-06-05T11:43:30.224Z,49.60
2018-06-05T11:44:30.221Z,46.70
2018-06-05T11:45:30.224Z,49.60
2018-06-05T11:46:30.233Z,48.50
2018-06-05T11:47:30.238Z,48.90
2018-06-05T11:48:30.233Z,43.20
2018-06-05T11:49:30.236Z,47.70
2018-06-05T11:50:30.239Z,50.60
2018-06-05T11:51:30.243Z,48.20
2018-06-05T11:52:30.250Z,47.40
2018-06-05T11:53:30.252Z,45.50
2018-06-05T11:54:30.256Z,48.80
2018-06-05T11:55:30.259Z,45.20
2018-06-05T11:56:30.258Z,46.00
2018-06-05T11:57:30.261Z,45.50
2018-06-05T11:58:30.266Z,46.50
2018-06-05T11:59:30.269Z,43.30
2018-06-05T12:00:30.275Z,47.70
2018-06-05T12:01:30.279Z,43.70
2018-06-05T12:02:30.280Z,45.70
2018-06-05T12:03:30.296Z,45.90
2018-06-05T12:04:30.290Z,45.90
2018-06-05T12:05:30.296Z,43.50
2018-06-05T12:06:30.298Z,44.40
2018-06-05T12:07:30.299Z,47.60
2018-06-05T12:08:30.297Z,51.60
2018-06-05T12:09:30.301Z,50.10
2018-06-05T12:10:30.305Z,47.70
2018-06-05T12:11:30.308Z,45.40
2018-06-05T12:12:30.317Z,44.70
2018-06-05T12:13:30.319Z,45.30
2018-06-05T12:14:30.322Z,51.60
2018-06-05T12:15:30.326Z,44.00
2018-06-05T12:16:30.325Z,48.20
2018-06-05T12:17:30.328Z,46.50
2018-06-05T12:18:30.335Z,51.00
2018-06-05T12:19:30.340Z,49.30
2018-06-05T12:20:30.338Z,44.00
2018-06-05T12:21:30.342Z,47.00
2018-06-05T12:22:30.346Z,46.10
2018-06-05T12:23:30.349Z,46.90
2018-06-05T12:24:30.356Z,45.70
2018-06-05T12:25:30.394Z,48.50
2018-06-05T12:26:30.363Z,45.30
2018-06-05T12:27:30.367Z,44.90
2018-06-05T12:28:30.365Z,39.90
2018-06-05T12:29:30.369Z,43.90
2018-06-05T12:30:30.372Z,43.40
2018-06-05T12:31:30.376Z,45.50
2018-06-05T12:32:30.383Z,41.30
2018-06-05T12:33:30.388Z,42.40
2018-06-05T12:34:30.387Z,45.60
2018-06-05T12:35:30.390Z,42.20
2018-06-05T12:36:30.397Z,40.70
2018-06-05T12:37:30.402Z,41.90
2018-06-05T12:38:30.408Z,39.70
2018-06-05T12:39:30.411Z,39.10
2018-06-05T12:40:30.455Z,40.40
2018-06-05T12:41:30.413Z,39.80
2018-06-05T12:42:30.418Z,38.00
2018-06-05T12:43:30.422Z,39.00
2018-06-05T12:44:30.436Z,39.80
2018-06-05T12:45:30.435Z,41.50
2018-06-05T12:46:30.439Z,38.00
2018-06-05T12:47:30.443Z,43.70
2018-06-05T12:48:30.442Z,41.80
2018-06-05T12:49:30.447Z,42.30
2018-06-05T12:50:30.456Z,41.80
2018-06-05T12:51:30.460Z,42.80
2018-06-05T12:52:30.459Z,38.20